sensor_id;sensor_type;location;lat;lon;timestamp;P1;durP1;ratioP1;P2;durP2;ratioP2
28828;SDS011;15966;51.540;11.870;2023-12-20T00:01:35;7.55;;;5.53;;
28828;SDS011;15966;51.540;11.870;2023-12-20T00:04:02;5.95;;;5.40;;
28828;SDS011;15966;51.540;11.870;2023-12-20T00:06:29;6.20;;;5.45;;
28828;SDS011;15966;51.540;11.870;2023-12-20T00:08:55;5.20;;;4.70;;
28828;SDS011;15966;51.540;11.870;2023-12-20T00:11:22;10.40;;;5.10;;
28828;SDS011;15966;51.540;11.870;2023-12-20T00:13:49;5.35;;;4.60;;
28828;SDS011;15966;51.540;11.870;2023-12-20T00:16:15;5.32;;;4.82;;
28828;SDS011;15966;51.540;11.870;2023-12-20T00:18:41;4.32;;;3.83;;
28828;SDS011;15966;51.540;11.870;2023-12-20T00:21:07;5.57;;;5.05;;
28828;SDS011;15966;51.540;11.870;2023-12-20T00:23:33;5.72;;;5.10;;
28828;SDS011;15966;51.540;11.870;2023-12-20T00:25:59;5.90;;;5.28;;
28828;SDS011;15966;51.540;11.870;2023-12-20T00:28:25;4.90;;;4.28;;
28828;SDS011;15966;51.540;11.870;2023-12-20T00:30:51;5.28;;;4.65;;
28828;SDS011;15966;51.540;11.870;2023-12-20T00:33:17;5.28;;;4.78;;
28828;SDS011;15966;51.540;11.870;2023-12-20T00:35:44;4.93;;;4.43;;
28828;SDS011;15966;51.540;11.870;2023-12-20T00:38:10;6.00;;;5.38;;
28828;SDS011;15966;51.540;11.870;2023-12-20T00:40:36;5.55;;;5.03;;
28828;SDS011;15966;51.540;11.870;2023-12-20T00:43:02;6.07;;;5.47;;
28828;SDS011;15966;51.540;11.870;2023-12-20T00:45:28;5.45;;;4.95;;
28828;SDS011;15966;51.540;11.870;2023-12-20T00:47:54;4.68;;;4.28;;
28828;SDS011;15966;51.540;11.870;2023-12-20T00:50:20;6.22;;;5.50;;
28828;SDS011;15966;51.540;11.870;2023-12-20T00:52:47;6.15;;;5.55;;
28828;SDS011;15966;51.540;11.870;2023-12-20T00:55:13;5.10;;;4.60;;
28828;SDS011;15966;51.540;11.870;2023-12-20T00:57:39;5.15;;;4.65;;
28828;SDS011;15966;51.540;11.870;2023-12-20T01:00:05;6.03;;;5.45;;
28828;SDS011;15966;51.540;11.870;2023-12-20T01:02:34;5.47;;;4.97;;
28828;SDS011;15966;51.540;11.870;2023-12-20T01:05:01;5.45;;;4.90;;
28828;SDS011;15966;51.540;11.870;2023-12-20T01:07:27;7.05;;;5.78;;
28828;SDS011;15966;51.540;11.870;2023-12-20T01:09:53;6.03;;;5.40;;
28828;SDS011;15966;51.540;11.870;2023-12-20T01:12:20;6.15;;;5.55;;
28828;SDS011;15966;51.540;11.870;2023-12-20T01:14:46;5.45;;;4.93;;
28828;SDS011;15966;51.540;11.870;2023-12-20T01:17:12;6.15;;;5.35;;
28828;SDS011;15966;51.540;11.870;2023-12-20T01:19:39;5.88;;;5.32;;
28828;SDS011;15966;51.540;11.870;2023-12-20T01:22:05;5.38;;;4.47;;
28828;SDS011;15966;51.540;11.870;2023-12-20T01:24:31;5.57;;;5.05;;
28828;SDS011;15966;51.540;11.870;2023-12-20T01:26:57;5.75;;;5.25;;
28828;SDS011;15966;51.540;11.870;2023-12-20T01:29:23;6.70;;;5.88;;
28828;SDS011;15966;51.540;11.870;2023-12-20T01:31:49;6.32;;;5.57;;
28828;SDS011;15966;51.540;11.870;2023-12-20T01:34:15;6.68;;;5.88;;
28828;SDS011;15966;51.540;11.870;2023-12-20T01:36:42;6.75;;;5.80;;
28828;SDS011;15966;51.540;11.870;2023-12-20T01:39:08;6.00;;;5.22;;
28828;SDS011;15966;51.540;11.870;2023-12-20T01:41:34;7.35;;;6.63;;
28828;SDS011;15966;51.540;11.870;2023-12-20T01:44:00;6.30;;;5.68;;
28828;SDS011;15966;51.540;11.870;2023-12-20T01:46:26;6.07;;;5.47;;
28828;SDS011;15966;51.540;11.870;2023-12-20T01:48:52;6.38;;;5.72;;
28828;SDS011;15966;51.540;11.870;2023-12-20T01:51:19;6.47;;;5.88;;
28828;SDS011;15966;51.540;11.870;2023-12-20T01:53:45;6.70;;;6.03;;
28828;SDS011;15966;51.540;11.870;2023-12-20T01:56:12;8.43;;;7.20;;
28828;SDS011;15966;51.540;11.870;2023-12-20T01:58:39;7.28;;;6.50;;
28828;SDS011;15966;51.540;11.870;2023-12-20T02:01:09;7.68;;;6.95;;
28828;SDS011;15966;51.540;11.870;2023-12-20T02:03:36;7.65;;;5.53;;
28828;SDS011;15966;51.540;11.870;2023-12-20T02:06:03;7.63;;;6.78;;
28828;SDS011;15966;51.540;11.870;2023-12-20T02:08:30;7.78;;;6.88;;
28828;SDS011;15966;51.540;11.870;2023-12-20T02:10:56;6.35;;;5.75;;
28828;SDS011;15966;51.540;11.870;2023-12-20T02:13:22;7.07;;;6.28;;
28828;SDS011;15966;51.540;11.870;2023-12-20T02:15:48;7.03;;;6.32;;
28828;SDS011;15966;51.540;11.870;2023-12-20T02:18:14;6.28;;;5.63;;
28828;SDS011;15966;51.540;11.870;2023-12-20T02:20:41;7.43;;;6.63;;
28828;SDS011;15966;51.540;11.870;2023-12-20T02:23:07;7.85;;;7.10;;
28828;SDS011;15966;51.540;11.870;2023-12-20T02:25:34;6.70;;;6.10;;
28828;SDS011;15966;51.540;11.870;2023-12-20T02:28:00;7.05;;;6.35;;
28828;SDS011;15966;51.540;11.870;2023-12-20T02:30:26;7.43;;;5.93;;
28828;SDS011;15966;51.540;11.870;2023-12-20T02:32:52;6.82;;;6.13;;
28828;SDS011;15966;51.540;11.870;2023-12-20T02:35:19;7.60;;;6.90;;
28828;SDS011;15966;51.540;11.870;2023-12-20T02:37:45;8.05;;;7.25;;
28828;SDS011;15966;51.540;11.870;2023-12-20T02:40:11;6.88;;;6.18;;
28828;SDS011;15966;51.540;11.870;2023-12-20T02:42:37;7.35;;;6.13;;
28828;SDS011;15966;51.540;11.870;2023-12-20T02:45:03;6.80;;;5.07;;
28828;SDS011;15966;51.540;11.870;2023-12-20T02:47:30;6.97;;;6.22;;
28828;SDS011;15966;51.540;11.870;2023-12-20T02:49:56;7.38;;;6.60;;
28828;SDS011;15966;51.540;11.870;2023-12-20T02:52:25;6.57;;;5.80;;
28828;SDS011;15966;51.540;11.870;2023-12-20T02:54:52;7.75;;;6.50;;
28828;SDS011;15966;51.540;11.870;2023-12-20T02:57:18;6.63;;;6.03;;
28828;SDS011;15966;51.540;11.870;2023-12-20T02:59:44;7.55;;;6.50;;
28828;SDS011;15966;51.540;11.870;2023-12-20T03:02:10;6.50;;;5.75;;
28828;SDS011;15966;51.540;11.870;2023-12-20T03:04:36;7.68;;;6.43;;
28828;SDS011;15966;51.540;11.870;2023-12-20T03:07:02;6.90;;;6.20;;
28828;SDS011;15966;51.540;11.870;2023-12-20T03:09:28;8.18;;;7.00;;
28828;SDS011;15966;51.540;11.870;2023-12-20T03:11:54;7.95;;;6.65;;
28828;SDS011;15966;51.540;11.870;2023-12-20T03:14:20;6.95;;;6.35;;
28828;SDS011;15966;51.540;11.870;2023-12-20T03:16:47;6.10;;;5.50;;
28828;SDS011;15966;51.540;11.870;2023-12-20T03:19:16;7.28;;;6.55;;
28828;SDS011;15966;51.540;11.870;2023-12-20T03:21:43;8.48;;;7.63;;
28828;SDS011;15966;51.540;11.870;2023-12-20T03:24:09;8.88;;;7.97;;
28828;SDS011;15966;51.540;11.870;2023-12-20T03:26:35;7.22;;;6.53;;
28828;SDS011;15966;51.540;11.870;2023-12-20T03:29:01;7.57;;;6.78;;
28828;SDS011;15966;51.540;11.870;2023-12-20T03:31:27;7.10;;;6.40;;
28828;SDS011;15966;51.540;11.870;2023-12-20T03:33:53;8.25;;;7.03;;
28828;SDS011;15966;51.540;11.870;2023-12-20T03:36:19;7.90;;;6.75;;
28828;SDS011;15966;51.540;11.870;2023-12-20T03:38:45;6.53;;;5.88;;
28828;SDS011;15966;51.540;11.870;2023-12-20T03:41:13;7.30;;;6.68;;
28828;SDS011;15966;51.540;11.870;2023-12-20T03:43:39;8.10;;;6.45;;
28828;SDS011;15966;51.540;11.870;2023-12-20T03:46:07;7.50;;;6.72;;
28828;SDS011;15966;51.540;11.870;2023-12-20T03:50:59;8.07;;;6.93;;
28828;SDS011;15966;51.540;11.870;2023-12-20T03:53:25;7.20;;;6.50;;
28828;SDS011;15966;51.540;11.870;2023-12-20T03:55:51;7.28;;;6.57;;
28828;SDS011;15966;51.540;11.870;2023-12-20T03:58:18;7.35;;;6.65;;
28828;SDS011;15966;51.540;11.870;2023-12-20T04:00:44;6.60;;;5.93;;
28828;SDS011;15966;51.540;11.870;2023-12-20T04:03:10;13.10;;;7.00;;
28828;SDS011;15966;51.540;11.870;2023-12-20T04:05:38;7.65;;;6.93;;
28828;SDS011;15966;51.540;11.870;2023-12-20T04:08:05;7.22;;;6.60;;
28828;SDS011;15966;51.540;11.870;2023-12-20T04:10:31;7.50;;;6.72;;
28828;SDS011;15966;51.540;11.870;2023-12-20T04:12:58;6.85;;;6.15;;
28828;SDS011;15966;51.540;11.870;2023-12-20T04:15:24;6.57;;;5.95;;
28828;SDS011;15966;51.540;11.870;2023-12-20T04:17:50;6.47;;;5.88;;
28828;SDS011;15966;51.540;11.870;2023-12-20T04:20:16;6.60;;;5.97;;
28828;SDS011;15966;51.540;11.870;2023-12-20T04:22:42;7.90;;;7.03;;
28828;SDS011;15966;51.540;11.870;2023-12-20T04:25:08;8.18;;;6.80;;
28828;SDS011;15966;51.540;11.870;2023-12-20T04:27:34;8.00;;;6.38;;
28828;SDS011;15966;51.540;11.870;2023-12-20T04:30:00;8.73;;;7.82;;
28828;SDS011;15966;51.540;11.870;2023-12-20T04:32:26;8.02;;;7.22;;
28828;SDS011;15966;51.540;11.870;2023-12-20T04:34:53;10.05;;;7.07;;
28828;SDS011;15966;51.540;11.870;2023-12-20T04:37:19;7.07;;;6.38;;
28828;SDS011;15966;51.540;11.870;2023-12-20T04:39:46;7.90;;;6.85;;
28828;SDS011;15966;51.540;11.870;2023-12-20T04:42:12;8.88;;;7.82;;
28828;SDS011;15966;51.540;11.870;2023-12-20T04:44:38;9.32;;;6.93;;
28828;SDS011;15966;51.540;11.870;2023-12-20T04:47:04;6.20;;;5.63;;
28828;SDS011;15966;51.540;11.870;2023-12-20T04:49:30;6.72;;;6.03;;
28828;SDS011;15966;51.540;11.870;2023-12-20T04:51:56;6.72;;;6.03;;
28828;SDS011;15966;51.540;11.870;2023-12-20T04:54:22;8.98;;;5.53;;
28828;SDS011;15966;51.540;11.870;2023-12-20T04:56:49;7.22;;;5.70;;
28828;SDS011;15966;51.540;11.870;2023-12-20T04:59:15;6.00;;;5.40;;
28828;SDS011;15966;51.540;11.870;2023-12-20T05:01:41;8.05;;;6.47;;
28828;SDS011;15966;51.540;11.870;2023-12-20T05:04:07;10.00;;;4.97;;
28828;SDS011;15966;51.540;11.870;2023-12-20T05:06:33;5.55;;;5.00;;
28828;SDS011;15966;51.540;11.870;2023-12-20T05:08:59;5.88;;;4.82;;
28828;SDS011;15966;51.540;11.870;2023-12-20T05:11:25;7.75;;;5.57;;
28828;SDS011;15966;51.540;11.870;2023-12-20T05:13:51;6.72;;;5.15;;
28828;SDS011;15966;51.540;11.870;2023-12-20T05:16:17;5.57;;;5.05;;
28828;SDS011;15966;51.540;11.870;2023-12-20T05:18:44;5.85;;;5.35;;
28828;SDS011;15966;51.540;11.870;2023-12-20T05:21:12;5.25;;;4.75;;
28828;SDS011;15966;51.540;11.870;2023-12-20T05:23:38;5.15;;;4.65;;
28828;SDS011;15966;51.540;11.870;2023-12-20T05:26:04;6.22;;;4.80;;
28828;SDS011;15966;51.540;11.870;2023-12-20T05:28:30;6.88;;;5.45;;
28828;SDS011;15966;51.540;11.870;2023-12-20T05:30:56;5.60;;;4.72;;
28828;SDS011;15966;51.540;11.870;2023-12-20T05:33:22;5.75;;;5.18;;
28828;SDS011;15966;51.540;11.870;2023-12-20T05:35:48;5.63;;;4.55;;
28828;SDS011;15966;51.540;11.870;2023-12-20T05:38:14;7.88;;;5.15;;
28828;SDS011;15966;51.540;11.870;2023-12-20T05:40:40;7.75;;;5.10;;
28828;SDS011;15966;51.540;11.870;2023-12-20T05:43:06;5.65;;;5.15;;
28828;SDS011;15966;51.540;11.870;2023-12-20T05:45:32;5.60;;;5.10;;
28828;SDS011;15966;51.540;11.870;2023-12-20T05:47:59;5.45;;;4.95;;
28828;SDS011;15966;51.540;11.870;2023-12-20T05:50:25;6.38;;;5.45;;
28828;SDS011;15966;51.540;11.870;2023-12-20T05:52:51;4.80;;;4.10;;
28828;SDS011;15966;51.540;11.870;2023-12-20T05:55:17;6.80;;;5.15;;
28828;SDS011;15966;51.540;11.870;2023-12-20T05:57:43;7.38;;;5.05;;
28828;SDS011;15966;51.540;11.870;2023-12-20T06:00:10;5.50;;;5.00;;
28828;SDS011;15966;51.540;11.870;2023-12-20T06:02:36;4.95;;;4.47;;
28828;SDS011;15966;51.540;11.870;2023-12-20T06:05:04;6.25;;;5.65;;
28828;SDS011;15966;51.540;11.870;2023-12-20T06:07:30;4.72;;;4.30;;
28828;SDS011;15966;51.540;11.870;2023-12-20T06:09:56;4.88;;;4.38;;
28828;SDS011;15966;51.540;11.870;2023-12-20T06:12:22;5.38;;;3.78;;
28828;SDS011;15966;51.540;11.870;2023-12-20T06:14:48;4.20;;;3.80;;
28828;SDS011;15966;51.540;11.870;2023-12-20T06:17:15;7.38;;;3.83;;
28828;SDS011;15966;51.540;11.870;2023-12-20T06:19:41;3.97;;;3.40;;
28828;SDS011;15966;51.540;11.870;2023-12-20T06:22:09;3.88;;;3.45;;
28828;SDS011;15966;51.540;11.870;2023-12-20T06:24:36;4.10;;;3.70;;
28828;SDS011;15966;51.540;11.870;2023-12-20T06:27:02;4.22;;;3.20;;
28828;SDS011;15966;51.540;11.870;2023-12-20T06:29:28;6.05;;;3.80;;
28828;SDS011;15966;51.540;11.870;2023-12-20T06:31:54;5.50;;;4.50;;
28828;SDS011;15966;51.540;11.870;2023-12-20T06:34:20;8.90;;;3.78;;
28828;SDS011;15966;51.540;11.870;2023-12-20T06:36:46;8.35;;;4.15;;
28828;SDS011;15966;51.540;11.870;2023-12-20T06:39:12;5.18;;;3.97;;
28828;SDS011;15966;51.540;11.870;2023-12-20T06:41:38;5.28;;;3.65;;
28828;SDS011;15966;51.540;11.870;2023-12-20T06:44:05;5.15;;;4.07;;
28828;SDS011;15966;51.540;11.870;2023-12-20T06:46:31;6.70;;;4.32;;
28828;SDS011;15966;51.540;11.870;2023-12-20T06:48:57;7.15;;;4.82;;
28828;SDS011;15966;51.540;11.870;2023-12-20T06:51:23;8.02;;;5.43;;
28828;SDS011;15966;51.540;11.870;2023-12-20T06:53:51;6.07;;;5.47;;
28828;SDS011;15966;51.540;11.870;2023-12-20T06:56:17;7.43;;;4.78;;
28828;SDS011;15966;51.540;11.870;2023-12-20T06:58:43;5.85;;;4.68;;
28828;SDS011;15966;51.540;11.870;2023-12-20T07:01:13;5.05;;;4.53;;
28828;SDS011;15966;51.540;11.870;2023-12-20T07:03:39;6.32;;;4.38;;
28828;SDS011;15966;51.540;11.870;2023-12-20T07:06:06;8.38;;;4.97;;
28828;SDS011;15966;51.540;11.870;2023-12-20T07:08:32;5.53;;;4.20;;
28828;SDS011;15966;51.540;11.870;2023-12-20T07:10:58;5.50;;;4.15;;
28828;SDS011;15966;51.540;11.870;2023-12-20T07:13:25;4.72;;;4.20;;
28828;SDS011;15966;51.540;11.870;2023-12-20T07:15:51;5.72;;;3.30;;
28828;SDS011;15966;51.540;11.870;2023-12-20T07:18:17;9.40;;;3.90;;
28828;SDS011;15966;51.540;11.870;2023-12-20T07:20:43;5.97;;;3.28;;
28828;SDS011;15966;51.540;11.870;2023-12-20T07:23:09;5.93;;;3.88;;
28828;SDS011;15966;51.540;11.870;2023-12-20T07:25:35;5.15;;;3.10;;
28828;SDS011;15966;51.540;11.870;2023-12-20T07:28:01;10.32;;;3.45;;
28828;SDS011;15966;51.540;11.870;2023-12-20T07:30:27;5.50;;;2.85;;
28828;SDS011;15966;51.540;11.870;2023-12-20T07:32:53;7.15;;;3.25;;
28828;SDS011;15966;51.540;11.870;2023-12-20T07:35:19;10.90;;;3.05;;
28828;SDS011;15966;51.540;11.870;2023-12-20T07:37:45;7.72;;;3.00;;
28828;SDS011;15966;51.540;11.870;2023-12-20T07:40:12;6.90;;;3.33;;
28828;SDS011;15966;51.540;11.870;2023-12-20T07:42:38;5.72;;;2.50;;
28828;SDS011;15966;51.540;11.870;2023-12-20T07:45:04;2.60;;;2.00;;
28828;SDS011;15966;51.540;11.870;2023-12-20T07:47:30;7.97;;;2.20;;
28828;SDS011;15966;51.540;11.870;2023-12-20T07:49:56;3.85;;;2.13;;
28828;SDS011;15966;51.540;11.870;2023-12-20T07:52:22;8.70;;;2.67;;
28828;SDS011;15966;51.540;11.870;2023-12-20T07:54:49;6.78;;;3.05;;
28828;SDS011;15966;51.540;11.870;2023-12-20T07:57:15;10.32;;;3.42;;
28828;SDS011;15966;51.540;11.870;2023-12-20T07:59:41;4.78;;;1.83;;
28828;SDS011;15966;51.540;11.870;2023-12-20T08:02:07;2.97;;;2.08;;
28828;SDS011;15966;51.540;11.870;2023-12-20T08:04:33;8.38;;;2.55;;
28828;SDS011;15966;51.540;11.870;2023-12-20T08:06:59;9.25;;;1.85;;
28828;SDS011;15966;51.540;11.870;2023-12-20T08:09:25;2.42;;;1.83;;
28828;SDS011;15966;51.540;11.870;2023-12-20T08:11:51;4.53;;;2.13;;
28828;SDS011;15966;51.540;11.870;2023-12-20T08:14:17;7.47;;;2.35;;
28828;SDS011;15966;51.540;11.870;2023-12-20T08:16:44;5.00;;;2.05;;
28828;SDS011;15966;51.540;11.870;2023-12-20T08:19:10;6.40;;;2.40;;
28828;SDS011;15966;51.540;11.870;2023-12-20T08:21:36;9.18;;;2.33;;
28828;SDS011;15966;51.540;11.870;2023-12-20T08:24:02;2.55;;;1.58;;
28828;SDS011;15966;51.540;11.870;2023-12-20T08:26:28;8.85;;;2.20;;
28828;SDS011;15966;51.540;11.870;2023-12-20T08:28:54;5.57;;;3.28;;
28828;SDS011;15966;51.540;11.870;2023-12-20T08:31:20;4.70;;;2.30;;
28828;SDS011;15966;51.540;11.870;2023-12-20T08:33:47;13.05;;;2.78;;
28828;SDS011;15966;51.540;11.870;2023-12-20T08:36:13;6.43;;;2.15;;
28828;SDS011;15966;51.540;11.870;2023-12-20T08:38:39;8.70;;;1.88;;
28828;SDS011;15966;51.540;11.870;2023-12-20T08:41:06;5.90;;;2.53;;
28828;SDS011;15966;51.540;11.870;2023-12-20T08:43:33;6.35;;;2.60;;
28828;SDS011;15966;51.540;11.870;2023-12-20T08:46:00;8.07;;;2.78;;
28828;SDS011;15966;51.540;11.870;2023-12-20T08:48:26;7.20;;;2.90;;
28828;SDS011;15966;51.540;11.870;2023-12-20T08:50:53;4.97;;;1.90;;
28828;SDS011;15966;51.540;11.870;2023-12-20T08:53:19;7.15;;;3.47;;
28828;SDS011;15966;51.540;11.870;2023-12-20T08:55:45;10.75;;;3.15;;
28828;SDS011;15966;51.540;11.870;2023-12-20T08:58:11;4.93;;;3.05;;
28828;SDS011;15966;51.540;11.870;2023-12-20T09:00:37;9.85;;;3.22;;
28828;SDS011;15966;51.540;11.870;2023-12-20T09:03:03;8.10;;;3.25;;
28828;SDS011;15966;51.540;11.870;2023-12-20T09:05:30;3.70;;;2.53;;
28828;SDS011;15966;51.540;11.870;2023-12-20T09:07:56;4.28;;;2.10;;
28828;SDS011;15966;51.540;11.870;2023-12-20T09:10:22;11.00;;;3.05;;
28828;SDS011;15966;51.540;11.870;2023-12-20T09:12:49;8.93;;;2.58;;
28828;SDS011;15966;51.540;11.870;2023-12-20T09:15:25;5.63;;;2.75;;
28828;SDS011;15966;51.540;11.870;2023-12-20T09:17:52;11.93;;;2.95;;
28828;SDS011;15966;51.540;11.870;2023-12-20T09:20:18;4.70;;;2.33;;
28828;SDS011;15966;51.540;11.870;2023-12-20T09:22:44;6.70;;;2.35;;
28828;SDS011;15966;51.540;11.870;2023-12-20T09:25:10;7.20;;;2.50;;
28828;SDS011;15966;51.540;11.870;2023-12-20T09:27:37;8.88;;;2.72;;
28828;SDS011;15966;51.540;11.870;2023-12-20T09:30:04;9.02;;;2.30;;
28828;SDS011;15966;51.540;11.870;2023-12-20T09:32:30;5.38;;;2.58;;
28828;SDS011;15966;51.540;11.870;2023-12-20T09:34:57;6.25;;;2.88;;
28828;SDS011;15966;51.540;11.870;2023-12-20T09:37:25;7.53;;;2.70;;
28828;SDS011;15966;51.540;11.870;2023-12-20T09:39:51;8.65;;;2.30;;
28828;SDS011;15966;51.540;11.870;2023-12-20T09:42:20;4.65;;;2.10;;
28828;SDS011;15966;51.540;11.870;2023-12-20T09:44:58;6.80;;;2.88;;
28828;SDS011;15966;51.540;11.870;2023-12-20T09:47:25;5.75;;;2.40;;
28828;SDS011;15966;51.540;11.870;2023-12-20T09:49:51;17.15;;;3.53;;
28828;SDS011;15966;51.540;11.870;2023-12-20T09:52:18;9.90;;;4.18;;
28828;SDS011;15966;51.540;11.870;2023-12-20T09:54:44;6.97;;;3.33;;
28828;SDS011;15966;51.540;11.870;2023-12-20T09:59:38;6.20;;;2.97;;
28828;SDS011;15966;51.540;11.870;2023-12-20T10:02:04;8.65;;;3.03;;
28828;SDS011;15966;51.540;11.870;2023-12-20T10:04:34;3.50;;;2.70;;
28828;SDS011;15966;51.540;11.870;2023-12-20T10:07:03;4.40;;;2.90;;
28828;SDS011;15966;51.540;11.870;2023-12-20T10:09:30;3.20;;;2.00;;
28828;SDS011;15966;51.540;11.870;2023-12-20T10:11:57;10.40;;;4.57;;
28828;SDS011;15966;51.540;11.870;2023-12-20T10:14:23;6.03;;;4.63;;
28828;SDS011;15966;51.540;11.870;2023-12-20T10:16:49;5.93;;;3.17;;
28828;SDS011;15966;51.540;11.870;2023-12-20T10:19:19;8.23;;;3.92;;
28828;SDS011;15966;51.540;11.870;2023-12-20T10:21:45;7.72;;;3.17;;
28828;SDS011;15966;51.540;11.870;2023-12-20T10:24:16;5.60;;;3.15;;
28828;SDS011;15966;51.540;11.870;2023-12-20T10:26:42;10.27;;;3.25;;
28828;SDS011;15966;51.540;11.870;2023-12-20T10:29:08;9.95;;;3.95;;
28828;SDS011;15966;51.540;11.870;2023-12-20T10:31:36;5.57;;;3.95;;
28828;SDS011;15966;51.540;11.870;2023-12-20T10:36:32;7.43;;;3.05;;
28828;SDS011;15966;51.540;11.870;2023-12-20T10:38:59;8.60;;;2.92;;
28828;SDS011;15966;51.540;11.870;2023-12-20T10:41:27;5.97;;;3.45;;
28828;SDS011;15966;51.540;11.870;2023-12-20T10:43:59;6.50;;;3.38;;
28828;SDS011;15966;51.540;11.870;2023-12-20T10:46:27;9.77;;;3.25;;
28828;SDS011;15966;51.540;11.870;2023-12-20T10:48:54;7.72;;;2.83;;
28828;SDS011;15966;51.540;11.870;2023-12-20T10:51:21;4.93;;;3.58;;
28828;SDS011;15966;51.540;11.870;2023-12-20T10:53:49;10.18;;;3.40;;
28828;SDS011;15966;51.540;11.870;2023-12-20T10:56:17;7.50;;;3.88;;
28828;SDS011;15966;51.540;11.870;2023-12-20T10:58:44;14.75;;;3.75;;
28828;SDS011;15966;51.540;11.870;2023-12-20T11:01:12;11.55;;;3.15;;
28828;SDS011;15966;51.540;11.870;2023-12-20T11:03:41;9.27;;;4.20;;
28828;SDS011;15966;51.540;11.870;2023-12-20T11:06:16;11.75;;;4.63;;
28828;SDS011;15966;51.540;11.870;2023-12-20T11:14:46;8.32;;;3.10;;
28828;SDS011;15966;51.540;11.870;2023-12-20T11:17:14;15.32;;;3.72;;
28828;SDS011;15966;51.540;11.870;2023-12-20T11:20:05;10.75;;;2.92;;
28828;SDS011;15966;51.540;11.870;2023-12-20T11:22:30;8.75;;;3.20;;
28828;SDS011;15966;51.540;11.870;2023-12-20T11:25:04;5.57;;;4.00;;
28828;SDS011;15966;51.540;11.870;2023-12-20T11:27:35;5.32;;;2.80;;
28828;SDS011;15966;51.540;11.870;2023-12-20T11:30:04;5.43;;;3.40;;
28828;SDS011;15966;51.540;11.870;2023-12-20T11:32:32;7.97;;;3.20;;
28828;SDS011;15966;51.540;11.870;2023-12-20T11:35:21;6.90;;;2.63;;
28828;SDS011;15966;51.540;11.870;2023-12-20T11:37:46;2.95;;;2.17;;
28828;SDS011;15966;51.540;11.870;2023-12-20T11:40:16;7.25;;;3.90;;
28828;SDS011;15966;51.540;11.870;2023-12-20T11:42:43;7.18;;;2.78;;
28828;SDS011;15966;51.540;11.870;2023-12-20T11:45:11;3.33;;;2.10;;
28828;SDS011;15966;51.540;11.870;2023-12-20T11:47:40;13.30;;;2.95;;
28828;SDS011;15966;51.540;11.870;2023-12-20T11:50:10;10.50;;;3.38;;
28828;SDS011;15966;51.540;11.870;2023-12-20T11:52:36;9.48;;;3.13;;
28828;SDS011;15966;51.540;11.870;2023-12-20T11:55:03;6.32;;;2.50;;
28828;SDS011;15966;51.540;11.870;2023-12-20T11:57:30;8.48;;;3.63;;
28828;SDS011;15966;51.540;11.870;2023-12-20T11:59:57;2.63;;;2.43;;
28828;SDS011;15966;51.540;11.870;2023-12-20T12:02:23;6.03;;;2.90;;
28828;SDS011;15966;51.540;11.870;2023-12-20T12:04:49;5.53;;;2.63;;
28828;SDS011;15966;51.540;11.870;2023-12-20T12:07:18;15.55;;;3.88;;
28828;SDS011;15966;51.540;11.870;2023-12-20T12:09:45;9.50;;;3.28;;
28828;SDS011;15966;51.540;11.870;2023-12-20T12:12:11;3.95;;;3.10;;
28828;SDS011;15966;51.540;11.870;2023-12-20T12:14:38;8.77;;;3.55;;
28828;SDS011;15966;51.540;11.870;2023-12-20T12:17:09;4.70;;;2.97;;
28828;SDS011;15966;51.540;11.870;2023-12-20T12:19:39;8.85;;;3.05;;
28828;SDS011;15966;51.540;11.870;2023-12-20T12:24:44;8.82;;;3.83;;
28828;SDS011;15966;51.540;11.870;2023-12-20T12:27:11;11.80;;;3.83;;
28828;SDS011;15966;51.540;11.870;2023-12-20T12:29:37;5.70;;;2.80;;
28828;SDS011;15966;51.540;11.870;2023-12-20T12:32:04;4.78;;;2.75;;
28828;SDS011;15966;51.540;11.870;2023-12-20T12:34:34;3.58;;;2.28;;
28828;SDS011;15966;51.540;11.870;2023-12-20T12:37:01;7.63;;;3.17;;
28828;SDS011;15966;51.540;11.870;2023-12-20T12:39:27;10.23;;;2.72;;
28828;SDS011;15966;51.540;11.870;2023-12-20T12:41:54;6.00;;;2.65;;
28828;SDS011;15966;51.540;11.870;2023-12-20T12:44:21;9.85;;;3.20;;
28828;SDS011;15966;51.540;11.870;2023-12-20T12:46:48;11.23;;;3.13;;
28828;SDS011;15966;51.540;11.870;2023-12-20T12:49:16;4.07;;;2.55;;
28828;SDS011;15966;51.540;11.870;2023-12-20T12:51:42;5.05;;;2.78;;
28828;SDS011;15966;51.540;11.870;2023-12-20T12:54:08;8.02;;;2.85;;
28828;SDS011;15966;51.540;11.870;2023-12-20T12:56:35;5.07;;;2.45;;
28828;SDS011;15966;51.540;11.870;2023-12-20T12:59:01;6.65;;;2.80;;
28828;SDS011;15966;51.540;11.870;2023-12-20T13:01:27;9.60;;;2.92;;
28828;SDS011;15966;51.540;11.870;2023-12-20T13:03:53;5.47;;;2.20;;
28828;SDS011;15966;51.540;11.870;2023-12-20T13:06:19;4.07;;;2.05;;
28828;SDS011;15966;51.540;11.870;2023-12-20T13:08:46;6.70;;;3.10;;
28828;SDS011;15966;51.540;11.870;2023-12-20T13:11:12;4.28;;;2.40;;
28828;SDS011;15966;51.540;11.870;2023-12-20T13:13:38;8.20;;;3.10;;
28828;SDS011;15966;51.540;11.870;2023-12-20T13:16:04;10.43;;;3.13;;
28828;SDS011;15966;51.540;11.870;2023-12-20T13:18:30;5.80;;;2.72;;
28828;SDS011;15966;51.540;11.870;2023-12-20T13:20:56;5.07;;;2.35;;
28828;SDS011;15966;51.540;11.870;2023-12-20T13:23:23;5.47;;;2.65;;
28828;SDS011;15966;51.540;11.870;2023-12-20T13:25:49;6.05;;;2.10;;
28828;SDS011;15966;51.540;11.870;2023-12-20T13:28:15;9.50;;;3.30;;
28828;SDS011;15966;51.540;11.870;2023-12-20T13:30:41;9.88;;;3.60;;
28828;SDS011;15966;51.540;11.870;2023-12-20T13:33:07;4.75;;;2.13;;
28828;SDS011;15966;51.540;11.870;2023-12-20T13:35:33;4.63;;;2.63;;
28828;SDS011;15966;51.540;11.870;2023-12-20T13:38:00;5.47;;;1.92;;
28828;SDS011;15966;51.540;11.870;2023-12-20T13:40:26;6.15;;;3.22;;
28828;SDS011;15966;51.540;11.870;2023-12-20T13:42:53;6.68;;;3.35;;
28828;SDS011;15966;51.540;11.870;2023-12-20T13:45:19;3.30;;;2.50;;
28828;SDS011;15966;51.540;11.870;2023-12-20T13:47:46;3.13;;;2.13;;
28828;SDS011;15966;51.540;11.870;2023-12-20T13:50:12;3.97;;;2.53;;
28828;SDS011;15966;51.540;11.870;2023-12-20T13:52:38;5.32;;;2.45;;
28828;SDS011;15966;51.540;11.870;2023-12-20T13:55:04;3.95;;;2.55;;
28828;SDS011;15966;51.540;11.870;2023-12-20T13:59:59;3.85;;;2.53;;
28828;SDS011;15966;51.540;11.870;2023-12-20T14:02:25;7.82;;;2.47;;
28828;SDS011;15966;51.540;11.870;2023-12-20T14:04:51;8.27;;;3.30;;
28828;SDS011;15966;51.540;11.870;2023-12-20T14:07:18;5.85;;;2.42;;
28828;SDS011;15966;51.540;11.870;2023-12-20T14:09:44;3.28;;;2.25;;
28828;SDS011;15966;51.540;11.870;2023-12-20T14:12:11;5.82;;;2.63;;
28828;SDS011;15966;51.540;11.870;2023-12-20T14:14:37;7.43;;;2.75;;
28828;SDS011;15966;51.540;11.870;2023-12-20T14:17:03;7.00;;;2.95;;
28828;SDS011;15966;51.540;11.870;2023-12-20T14:21:57;2.40;;;2.15;;
28828;SDS011;15966;51.540;11.870;2023-12-20T14:24:26;6.32;;;2.20;;
28828;SDS011;15966;51.540;11.870;2023-12-20T14:26:52;9.40;;;2.58;;
28828;SDS011;15966;51.540;11.870;2023-12-20T14:29:18;7.70;;;2.42;;
28828;SDS011;15966;51.540;11.870;2023-12-20T14:31:45;4.75;;;2.35;;
28828;SDS011;15966;51.540;11.870;2023-12-20T14:34:11;5.25;;;2.60;;
28828;SDS011;15966;51.540;11.870;2023-12-20T14:36:37;2.58;;;2.30;;
28828;SDS011;15966;51.540;11.870;2023-12-20T14:39:03;7.18;;;3.30;;
28828;SDS011;15966;51.540;11.870;2023-12-20T14:41:30;4.13;;;2.55;;
28828;SDS011;15966;51.540;11.870;2023-12-20T14:43:57;3.92;;;2.63;;
28828;SDS011;15966;51.540;11.870;2023-12-20T14:46:24;3.28;;;2.33;;
28828;SDS011;15966;51.540;11.870;2023-12-20T14:48:51;6.82;;;3.03;;
28828;SDS011;15966;51.540;11.870;2023-12-20T14:51:17;5.97;;;2.55;;